Time;durP1;ratioP1;P1;durP2;ratioP2;P2;SDS_P1;SDS_P2;PMS_P1;PMS_P2;Temp;Humidity;BMP_temperature;BMP_pressure;BME280_temperature;BME280_humidity;BME280_pressure;Samples;Min_cycle;Max_cycle;Signal;HPM_P1;HPM_P2
2022/10/17 00:00:00;;;;;;;1.70;1.60;;;17.80;67.70;;;;;;5053413;28;20242;-68
2022/10/17 00:02:25;;;;;;;1.90;1.60;;;17.80;67.70;;;;;;5053475;28;20187;-68
2022/10/17 00:04:51;;;;;;;2.22;1.40;;;17.80;67.70;;;;;;5051893;28;20167;-67
2022/10/17 00:07:16;;;;;;;1.48;1.35;;;17.80;67.70;;;;;;5053303;28;20179;-67
2022/10/17 00:09:42;;;;;;;2.55;1.65;;;17.80;67.80;;;;;;5053433;28;20171;-67
2022/10/17 00:12:08;;;;;;;2.25;1.70;;;17.80;67.70;;;;;;5052004;28;20223;-68
2022/10/17 00:14:33;;;;;;;2.38;2.00;;;17.70;67.70;;;;;;5053385;28;20258;-69
2022/10/17 00:16:59;;;;;;;1.70;1.60;;;17.80;67.70;;;;;;5053043;28;20221;-69
2022/10/17 00:19:24;;;;;;;2.00;1.60;;;17.80;67.70;;;;;;5052549;28;20245;-68
2022/10/17 00:21:50;;;;;;;1.90;1.67;;;17.80;67.70;;;;;;5053329;28;20693;-67
2022/10/17 00:24:15;;;;;;;2.50;1.65;;;17.80;67.80;;;;;;5052620;28;20205;-67
2022/10/17 00:26:41;;;;;;;1.70;1.60;;;17.70;67.70;;;;;;5052027;28;20192;-67
2022/10/17 00:29:06;;;;;;;1.50;1.40;;;17.80;67.70;;;;;;5053018;28;20183;-68
2022/10/17 00:31:32;;;;;;;1.83;1.48;;;17.80;67.80;;;;;;5053029;28;20183;-68
2022/10/17 00:33:57;;;;;;;1.63;1.52;;;17.80;67.80;;;;;;5051794;28;20199;-67
2022/10/17 00:36:25;;;;;;;1.50;1.40;;;17.70;67.70;;;;;;5052972;28;20622;-67
2022/10/17 00:38:52;;;;;;;1.58;1.48;;;17.70;67.70;;;;;;5052826;28;20179;-68
2022/10/17 00:41:18;;;;;;;1.75;1.65;;;17.70;67.70;;;;;;5051706;28;20625;-68
2022/10/17 00:44:26;;;;;;;1.52;1.38;;;17.80;67.70;;;;;;5052865;28;20182;-68
2022/10/17 00:46:52;;;;;;;1.80;1.65;;;17.70;67.70;;;;;;5052427;28;20262;-67
2022/10/17 00:49:17;;;;;;;1.75;1.63;;;17.70;67.70;;;;;;5052736;28;20361;-67
2022/10/17 00:51:57;;;;;;;1.75;1.50;;;17.70;67.70;;;;;;5052878;28;20179;-67
2022/10/17 00:54:24;;;;;;;2.78;1.85;;;17.70;67.70;;;;;;5050992;28;20211;-67
2022/10/17 00:56:50;;;;;;;1.70;1.60;;;17.70;67.70;;;;;;5052691;28;20217;-67
2022/10/17 00:59:16;;;;;;;1.70;1.60;;;17.70;67.70;;;;;;5034756;28;20202;-68
2022/10/17 01:01:43;;;;;;;1.60;1.50;;;17.70;67.70;;;;;;5052053;28;20175;-67
2022/10/17 01:04:08;;;;;;;2.28;1.42;;;17.70;67.70;;;;;;5034878;28;20220;-67
2022/10/17 01:06:34;;;;;;;1.35;1.33;;;17.60;67.70;;;;;;5051438;28;20262;-67
2022/10/17 01:09:00;;;;;;;1.42;1.33;;;17.70;67.70;;;;;;5051448;28;20254;-67
2022/10/17 01:11:31;;;;;;;1.55;1.45;;;17.70;67.80;;;;;;5034420;28;20234;-67
2022/10/17 01:14:00;;;;;;;1.35;1.25;;;17.70;67.80;;;;;;5051047;28;20252;-68
2022/10/17 01:16:31;;;;;;;1.90;1.58;;;17.70;67.70;;;;;;5058291;28;20660;-67
2022/10/17 01:19:00;;;;;;;1.75;1.63;;;17.70;67.70;;;;;;5059013;28;20174;-67
2022/10/17 01:21:44;;;;;;;1.45;1.35;;;17.70;67.70;;;;;;5058184;28;20170;-67
2022/10/17 01:24:09;;;;;;;1.88;1.65;;;17.60;67.70;;;;;;5058646;28;20182;-67
2022/10/17 01:26:58;;;;;;;1.60;1.50;;;17.70;67.70;;;;;;5059313;28;20174;-67
2022/10/17 01:29:46;;;;;;;1.40;1.30;;;17.70;67.70;;;;;;5043307;28;20252;-67
2022/10/17 01:32:19;;;;;;;1.60;1.45;;;17.70;67.80;;;;;;5043375;28;20228;-67
2022/10/17 01:34:57;;;;;;;1.55;1.35;;;17.70;67.80;;;;;;5059098;28;20187;-67
2022/10/17 01:37:36;;;;;;;1.83;1.73;;;17.60;67.70;;;;;;5058293;28;20178;-68
2022/10/17 01:40:12;;;;;;;1.67;1.58;;;17.70;67.80;;;;;;5042217;28;20198;-67
2022/10/17 01:43:03;;;;;;;1.98;1.33;;;17.70;67.80;;;;;;5041417;28;20261;-67
2022/10/17 01:45:42;;;;;;;1.70;1.60;;;17.60;67.80;;;;;;5057863;28;20233;-67
2022/10/17 01:48:19;;;;;;;1.77;1.67;;;17.70;67.80;;;;;;5042509;28;20271;-67
2022/10/17 01:50:49;;;;;;;2.20;1.67;;;17.60;67.80;;;;;;5040997;28;20179;-67
2022/10/17 01:53:24;;;;;;;1.10;1.10;;;17.60;67.80;;;;;;5057370;28;20202;-67
2022/10/17 01:55:49;;;;;;;1.60;1.50;;;17.60;67.80;;;;;;5057731;28;20514;-67
2022/10/17 01:58:25;;;;;;;1.55;1.45;;;17.60;67.80;;;;;;5039941;28;20687;-67
2022/10/17 02:00:51;;;;;;;1.73;1.45;;;17.60;67.80;;;;;;5041927;28;20186;-67
2022/10/17 02:03:17;;;;;;;1.70;1.60;;;17.60;67.80;;;;;;5040474;28;20653;-67
2022/10/17 02:05:43;;;;;;;1.63;1.45;;;17.60;67.80;;;;;;5040041;28;20650;-67
2022/10/17 02:08:08;;;;;;;1.63;1.33;;;17.60;67.80;;;;;;5058440;28;20201;-67
2022/10/17 02:11:01;;;;;;;1.55;1.40;;;17.60;67.80;;;;;;5058681;28;20214;-67
2022/10/17 02:13:51;;;;;;;1.85;1.70;;;17.60;67.90;;;;;;5055555;28;20702;-67
2022/10/17 02:16:37;;;;;;;2.38;1.63;;;17.60;67.90;;;;;;5058145;28;20190;-68
2022/10/17 02:19:28;;;;;;;1.70;1.60;;;17.60;67.80;;;;;;5057127;28;20210;-68
2022/10/17 02:22:19;;;;;;;1.80;1.70;;;17.60;67.80;;;;;;5042138;28;20190;-67
2022/10/17 02:24:58;;;;;;;1.63;1.52;;;17.60;67.80;;;;;;5058391;28;20533;-67
2022/10/17 02:27:51;;;;;;;2.63;1.65;;;17.60;67.80;;;;;;5055167;28;20171;-67
2022/10/17 02:30:49;;;;;;;2.03;1.35;;;17.60;67.90;;;;;;5053948;28;20185;-67
2022/10/17 02:33:28;;;;;;;1.67;1.50;;;17.60;67.90;;;;;;5051062;28;20226;-67
2022/10/17 02:35:55;;;;;;;1.52;1.42;;;17.60;67.90;;;;;;5054226;28;20183;-67
2022/10/17 02:38:20;;;;;;;1.50;1.40;;;17.60;67.90;;;;;;5037262;28;20178;-67
2022/10/17 02:40:46;;;;;;;1.85;1.20;;;17.60;67.90;;;;;;5036468;28;20179;-67
2022/10/17 02:43:11;;;;;;;1.50;1.40;;;17.60;67.90;;;;;;5053600;28;20191;-67
2022/10/17 02:45:37;;;;;;;1.48;1.38;;;17.60;67.90;;;;;;5037130;28;20185;-67
2022/10/17 02:48:11;;;;;;;2.85;1.38;;;17.60;67.90;;;;;;5036482;28;20326;-67
2022/10/17 02:50:54;;;;;;;1.95;1.58;;;17.60;67.90;;;;;;5038348;28;20179;-67
2022/10/17 02:53:29;;;;;;;1.38;1.27;;;17.60;68.00;;;;;;5052881;28;20215;-67
2022/10/17 02:55:57;;;;;;;1.83;1.35;;;17.60;67.90;;;;;;5038134;28;20198;-67
2022/10/17 02:58:24;;;;;;;2.45;1.33;;;17.60;68.00;;;;;;5037367;28;20207;-67
2022/10/17 03:00:50;;;;;;;1.83;1.73;;;17.60;67.90;;;;;;5036603;28;20179;-68
2022/10/17 03:03:23;;;;;;;1.70;1.42;;;17.60;68.00;;;;;;5053397;28;20194;-67
2022/10/17 03:05:49;;;;;;;2.33;1.33;;;17.60;68.00;;;;;;5054776;28;20186;-67
2022/10/17 03:08:14;;;;;;;1.50;1.38;;;17.60;68.00;;;;;;5052432;28;20179;-66
2022/10/17 03:10:40;;;;;;;1.60;1.50;;;17.60;67.90;;;;;;5054351;28;20321;-67
2022/10/17 03:13:05;;;;;;;1.60;1.50;;;17.60;68.00;;;;;;5054086;28;20293;-68
2022/10/17 03:15:31;;;;;;;1.40;1.30;;;17.60;68.00;;;;;;5053972;28;20262;-67
2022/10/17 03:17:56;;;;;;;2.58;1.20;;;17.60;68.00;;;;;;5054321;28;20190;-68
2022/10/17 03:20:22;;;;;;;1.67;1.52;;;17.60;68.00;;;;;;5054503;28;20266;-68
2022/10/17 03:22:47;;;;;;;1.58;1.23;;;17.60;68.00;;;;;;5053775;28;20261;-67
2022/10/17 03:25:13;;;;;;;1.50;1.40;;;17.60;68.00;;;;;;5053982;28;20179;-67
2022/10/17 03:27:38;;;;;;;1.75;1.50;;;17.60;68.00;;;;;;5054529;28;20622;-67
2022/10/17 03:30:04;;;;;;;1.30;1.20;;;17.60;68.80;;;;;;5053204;28;20194;-67
2022/10/17 03:32:32;;;;;;;2.25;1.38;;;17.60;68.10;;;;;;5054255;28;20206;-67
2022/10/17 03:34:57;;;;;;;1.50;1.40;;;17.60;68.00;;;;;;5054043;28;20258;-69
2022/10/17 03:37:23;;;;;;;1.42;1.33;;;17.60;68.10;;;;;;5053139;28;20641;-68
2022/10/17 03:39:48;;;;;;;1.60;1.50;;;17.60;68.10;;;;;;5053218;28;20182;-67
2022/10/17 03:42:14;;;;;;;1.25;1.15;;;17.60;68.10;;;;;;5053340;28;20177;-68
2022/10/17 03:44:39;;;;;;;1.33;1.23;;;17.60;68.10;;;;;;5054091;28;20266;-67
2022/10/17 03:47:05;;;;;;;1.35;1.25;;;17.60;68.10;;;;;;5053674;28;20171;-67
2022/10/17 03:49:30;;;;;;;1.55;1.40;;;17.60;68.90;;;;;;5053201;28;20183;-67
2022/10/17 03:51:56;;;;;;;1.38;1.27;;;17.60;68.10;;;;;;5053829;28;20576;-67
2022/10/17 03:54:21;;;;;;;2.30;1.33;;;17.60;68.10;;;;;;5053902;28;20674;-67
2022/10/17 03:56:47;;;;;;;1.60;1.50;;;17.50;68.00;;;;;;5053237;28;20175;-67
2022/10/17 03:59:13;;;;;;;1.38;1.27;;;17.60;68.10;;;;;;5053561;28;20175;-68
2022/10/17 04:01:39;;;;;;;5.22;1.80;;;17.50;68.00;;;;;;5053888;28;20180;-67
2022/10/17 04:04:04;;;;;;;2.03;1.25;;;17.60;68.10;;;;;;5052812;28;20182;-67
2022/10/17 04:06:30;;;;;;;1.13;1.13;;;17.60;68.10;;;;;;5053659;28;20174;-67
2022/10/17 04:08:55;;;;;;;1.25;1.17;;;17.60;68.10;;;;;;5053845;28;20183;-67
2022/10/17 04:11:21;;;;;;;1.40;1.30;;;17.50;68.10;;;;;;5052583;28;20246;-67
2022/10/17 04:13:46;;;;;;;1.52;1.38;;;17.50;68.10;;;;;;5053741;28;20676;-67
2022/10/17 04:16:14;;;;;;;1.40;1.30;;;17.50;68.90;;;;;;5053311;28;20250;-67
2022/10/17 04:18:39;;;;;;;1.65;1.40;;;17.50;68.10;;;;;;5052842;28;20218;-68
2022/10/17 04:21:06;;;;;;;2.60;1.58;;;17.50;68.50;;;;;;5053352;28;20202;-67
2022/10/17 04:23:31;;;;;;;2.13;1.50;;;17.50;68.10;;;;;;5053532;28;20229;-67
2022/10/17 04:25:57;;;;;;;1.38;1.27;;;17.50;68.10;;;;;;5052364;28;20531;-67
2022/10/17 04:28:23;;;;;;;2.25;1.33;;;17.50;68.10;;;;;;5053445;28;20178;-67
2022/10/17 04:31:00;;;;;;;4.13;1.33;;;17.50;68.10;;;;;;5053248;28;20182;-67
2022/10/17 04:33:25;;;;;;;2.70;1.30;;;17.50;68.10;;;;;;5052409;28;20696;-67
2022/10/17 04:35:58;;;;;;;2.00;1.58;;;17.50;68.10;;;;;;5053254;28;20171;-68
2022/10/17 04:38:24;;;;;;;2.30;1.45;;;17.50;68.10;;;;;;5053037;28;20540;-67
2022/10/17 04:40:49;;;;;;;1.70;1.60;;;17.50;68.10;;;;;;5053136;28;20167;-68
2022/10/17 04:43:15;;;;;;;1.30;1.20;;;17.50;68.10;;;;;;5052567;28;20657;-68
2022/10/17 04:45:40;;;;;;;1.85;1.45;;;17.50;68.10;;;;;;5052214;28;20209;-67
2022/10/17 04:48:06;;;;;;;1.77;1.40;;;17.50;68.10;;;;;;5052496;28;20175;-67
2022/10/17 04:50:31;;;;;;;1.27;1.17;;;17.50;68.20;;;;;;5052724;28;20171;-67
2022/10/17 04:52:57;;;;;;;4.35;1.20;;;17.50;68.20;;;;;;5051694;28;20701;-68
2022/10/17 04:55:22;;;;;;;1.60;1.40;;;17.50;68.20;;;;;;5052724;28;20171;-67
2022/10/17 04:57:48;;;;;;;1.60;1.50;;;17.50;68.20;;;;;;5052875;28;20179;-68
2022/10/17 05:00:13;;;;;;;1.33;1.23;;;17.50;68.20;;;;;;5051594;28;20626;-68
2022/10/17 05:02:39;;;;;;;1.50;1.40;;;17.50;68.20;;;;;;5052520;28;20179;-67
2022/10/17 05:05:05;;;;;;;1.58;1.48;;;17.50;68.20;;;;;;5052513;28;20173;-67
2022/10/17 05:07:31;;;;;;;3.53;1.38;;;17.50;68.20;;;;;;5051911;28;20182;-67
2022/10/17 05:09:57;;;;;;;1.17;1.15;;;17.50;68.20;;;;;;5052549;28;20695;-67
2022/10/17 05:12:23;;;;;;;1.67;1.58;;;17.50;68.20;;;;;;5052204;28;20255;-67
2022/10/17 05:14:48;;;;;;;1.20;1.10;;;17.50;68.20;;;;;;5051684;28;20221;-67
2022/10/17 05:17:14;;;;;;;1.10;1.10;;;17.50;68.20;;;;;;5051980;28;20166;-68
2022/10/17 05:19:39;;;;;;;1.88;1.40;;;17.50;68.20;;;;;;5052548;28;20237;-67
2022/10/17 05:22:05;;;;;;;1.35;1.20;;;17.50;68.20;;;;;;5051288;28;20171;-67
2022/10/17 05:24:30;;;;;;;1.20;1.20;;;17.50;68.20;;;;;;5051203;28;20634;-67
2022/10/17 05:26:56;;;;;;;1.65;1.40;;;17.50;68.20;;;;;;5052398;28;20684;-67
2022/10/17 05:29:21;;;;;;;1.40;1.30;;;17.40;68.10;;;;;;5051409;28;20633;-67
2022/10/17 05:31:47;;;;;;;1.65;1.55;;;17.50;68.30;;;;;;5052047;28;20236;-67
2022/10/17 05:34:12;;;;;;;1.70;1.20;;;17.50;68.20;;;;;;5051998;28;20370;-67
2022/10/17 05:36:38;;;;;;;3.88;1.20;;;17.50;68.30;;;;;;5051505;28;20596;-67
2022/10/17 05:39:03;;;;;;;2.33;1.58;;;17.50;68.20;;;;;;5051941;28;20710;-67
2022/10/17 05:41:29;;;;;;;1.38;1.27;;;17.50;68.30;;;;;;5052218;28;20254;-67
2022/10/17 05:43:54;;;;;;;1.50;1.40;;;17.40;68.20;;;;;;5051391;28;20179;-67
2022/10/17 05:46:20;;;;;;;1.58;1.48;;;17.50;68.30;;;;;;5051585;28;20536;-67
2022/10/17 05:48:45;;;;;;;1.58;1.48;;;17.50;68.30;;;;;;5051048;28;20637;-67
2022/10/17 05:51:11;;;;;;;1.55;1.45;;;17.40;68.20;;;;;;5051878;28;20180;-67
2022/10/17 05:53:39;;;;;;;1.67;1.13;;;17.50;68.30;;;;;;5052003;28;20672;-67
2022/10/17 05:56:06;;;;;;;1.30;1.20;;;17.40;68.20;;;;;;5050911;28;20943;-67
2022/10/17 05:58:33;;;;;;;1.42;1.33;;;17.50;68.30;;;;;;5051947;28;20195;-67
2022/10/17 06:00:59;;;;;;;1.58;1.45;;;17.40;68.20;;;;;;5051585;28;20210;-68
2022/10/17 06:03:25;;;;;;;1.30;1.20;;;17.50;68.30;;;;;;5054784;28;20549;-67
2022/10/17 06:05:51;;;;;;;1.45;1.35;;;17.40;68.20;;;;;;5055768;28;20170;-66
2022/10/17 06:08:17;;;;;;;1.95;1.40;;;17.40;68.20;;;;;;5055312;28;20186;-66
2022/10/17 06:10:42;;;;;;;1.10;1.10;;;17.50;68.30;;;;;;5054550;28;20215;-67
2022/10/17 06:13:08;;;;;;;1.35;1.25;;;17.40;68.20;;;;;;5055222;28;20213;-67
2022/10/17 06:15:33;;;;;;;1.55;1.30;;;17.40;68.20;;;;;;5055419;28;20182;-67
2022/10/17 06:17:59;;;;;;;2.67;1.40;;;17.40;68.20;;;;;;5054685;28;20568;-67
2022/10/17 06:20:24;;;;;;;2.22;1.73;;;17.40;68.20;;;;;;5055586;28;20171;-67
2022/10/17 06:22:50;;;;;;;1.40;1.30;;;17.40;68.20;;;;;;5055435;28;20218;-67
2022/10/17 06:25:15;;;;;;;1.65;1.52;;;17.40;68.20;;;;;;5054330;28;20179;-67
2022/10/17 06:27:41;;;;;;;1.48;1.38;;;17.40;68.20;;;;;;5055416;28;20535;-67
2022/10/17 06:30:07;;;;;;;1.50;1.40;;;17.40;68.20;;;;;;5055201;28;20178;-67
2022/10/17 06:32:32;;;;;;;1.92;1.67;;;17.50;68.30;;;;;;5055041;28;20171;-67
2022/10/17 06:34:58;;;;;;;1.50;1.40;;;17.40;68.20;;;;;;5055212;28;20516;-67
2022/10/17 06:37:23;;;;;;;1.73;1.63;;;17.40;68.20;;;;;;5055325;28;20175;-68
2022/10/17 06:39:49;;;;;;;1.27;1.20;;;17.50;68.20;;;;;;5054746;28;20186;-68
2022/10/17 06:42:14;;;;;;;1.33;1.23;;;17.50;68.30;;;;;;5055069;28;20503;-68
2022/10/17 06:44:40;;;;;;;1.48;1.38;;;17.50;68.30;;;;;;5055016;28;20175;-68
2022/10/17 06:47:05;;;;;;;1.40;1.30;;;17.50;68.30;;;;;;5054175;28;20232;-68
2022/10/17 06:49:33;;;;;;;3.17;1.67;;;17.50;68.30;;;;;;5055370;28;20186;-67
2022/10/17 06:51:58;;;;;;;1.45;1.15;;;17.50;68.40;;;;;;5055115;28;20179;-68
2022/10/17 06:54:24;;;;;;;3.08;1.52;;;17.50;68.40;;;;;;5054265;28;20214;-67
2022/10/17 06:56:49;;;;;;;3.40;1.42;;;17.50;68.40;;;;;;5055064;28;20179;-69
2022/10/17 06:59:15;;;;;;;2.42;1.58;;;17.50;68.40;;;;;;5054095;28;20221;-68
2022/10/17 07:01:41;;;;;;;1.50;1.40;;;17.50;68.30;;;;;;5055216;28;20221;-68
2022/10/17 07:04:07;;;;;;;2.22;1.48;;;17.50;68.30;;;;;;5054887;28;20604;-67
2022/10/17 07:06:32;;;;;;;1.77;1.50;;;17.50;68.30;;;;;;5054237;28;20199;-67
2022/10/17 07:08:59;;;;;;;1.77;1.38;;;17.50;68.40;;;;;;5053459;28;20179;-67
2022/10/17 07:11:25;;;;;;;3.13;1.60;;;17.50;68.40;;;;;;5054714;28;20234;-67
2022/10/17 07:13:50;;;;;;;3.88;1.65;;;17.60;68.70;;;;;;5053644;28;20245;-67
2022/10/17 07:16:16;;;;;;;5.38;1.80;;;17.60;68.70;;;;;;5054326;28;20171;-67
2022/10/17 07:18:42;;;;;;;3.35;1.60;;;17.60;68.70;;;;;;5053742;28;20259;-67
2022/10/17 07:21:08;;;;;;;4.15;1.65;;;17.50;68.70;;;;;;5053910;28;20175;-68
2022/10/17 07:23:35;;;;;;;4.70;1.90;;;17.50;68.60;;;;;;5054656;28;20190;-67
2022/10/17 07:26:02;;;;;;;3.22;1.63;;;17.50;68.60;;;;;;5053183;28;20171;-67
2022/10/17 07:28:27;;;;;;;4.25;1.90;;;17.50;68.60;;;;;;5053741;28;20526;-67
2022/10/17 07:30:53;;;;;;;2.53;1.90;;;17.50;68.60;;;;;;5054612;28;20221;-67
2022/10/17 07:33:19;;;;;;;3.08;1.65;;;17.50;68.60;;;;;;5054187;28;20210;-67
2022/10/17 07:35:45;;;;;;;2.17;1.60;;;17.50;68.60;;;;;;5053751;28;20175;-67
2022/10/17 07:38:10;;;;;;;3.45;1.80;;;17.60;68.60;;;;;;5053962;28;20183;-68
2022/10/17 07:40:36;;;;;;;3.67;1.52;;;17.60;68.50;;;;;;5054137;28;20543;-67
2022/10/17 07:43:01;;;;;;;2.63;1.67;;;17.60;68.60;;;;;;5053088;28;20190;-67
2022/10/17 07:45:27;;;;;;;4.78;1.90;;;17.60;68.60;;;;;;5054063;28;20183;-67
2022/10/17 07:47:56;;;;;;;3.70;2.25;;;17.60;68.60;;;;;;5054314;28;20657;-67
2022/10/17 07:50:21;;;;;;;5.28;1.95;;;17.60;68.60;;;;;;5053409;28;20178;-67
2022/10/17 07:52:47;;;;;;;3.17;1.88;;;17.60;68.70;;;;;;5053933;28;20199;-67
2022/10/17 07:55:12;;;;;;;4.13;1.98;;;17.60;68.70;;;;;;5053771;28;20183;-67
2022/10/17 07:57:39;;;;;;;2.40;1.70;;;17.60;68.80;;;;;;5053142;28;20171;-67
2022/10/17 08:00:06;;;;;;;3.08;2.05;;;17.60;68.80;;;;;;5053839;28;20183;-67
2022/10/17 08:02:31;;;;;;;1.63;1.50;;;17.60;68.80;;;;;;5053049;28;20645;-67
2022/10/17 08:04:57;;;;;;;1.75;1.63;;;17.60;68.80;;;;;;5053568;28;20262;-67
2022/10/17 08:07:22;;;;;;;3.30;1.73;;;17.60;68.80;;;;;;5053888;28;20167;-66
2022/10/17 08:09:48;;;;;;;2.92;1.50;;;17.50;68.80;;;;;;5053221;28;20183;-67
2022/10/17 08:12:14;;;;;;;4.03;1.73;;;17.60;68.80;;;;;;5053227;28;20218;-69
2022/10/17 08:14:40;;;;;;;2.58;1.75;;;17.50;68.80;;;;;;5053454;28;20211;-68
2022/10/17 08:17:05;;;;;;;2.83;1.50;;;17.50;68.70;;;;;;5052710;28;20204;-67
2022/10/17 08:19:31;;;;;;;4.47;1.55;;;17.50;68.80;;;;;;5053753;28;20171;-67
2022/10/17 08:21:58;;;;;;;2.63;1.80;;;17.50;68.80;;;;;;5053407;28;20179;-67
2022/10/17 08:24:23;;;;;;;3.40;1.70;;;17.50;68.80;;;;;;5052155;28;20309;-67
2022/10/17 08:26:49;;;;;;;2.22;1.60;;;17.50;68.80;;;;;;5053303;28;20633;-67
2022/10/17 08:29:15;;;;;;;3.00;1.80;;;17.50;68.80;;;;;;5053028;28;20179;-67
2022/10/17 08:31:40;;;;;;;3.20;1.85;;;17.50;68.90;;;;;;5052802;28;20171;-67
2022/10/17 08:34:06;;;;;;;1.70;1.52;;;17.50;68.80;;;;;;5051935;28;20345;-67
2022/10/17 08:36:31;;;;;;;3.75;1.73;;;17.50;68.80;;;;;;5053156;28;20175;-67
2022/10/17 08:38:57;;;;;;;3.65;1.83;;;17.50;68.90;;;;;;5052266;28;20175;-68
2022/10/17 08:41:54;;;;;;;2.40;1.55;;;17.50;68.90;;;;;;5053166;28;20167;-67
2022/10/17 08:44:41;;;;;;;2.78;1.70;;;17.50;68.90;;;;;;5051821;28;20175;-68
2022/10/17 08:47:11;;;;;;;2.78;1.45;;;17.50;68.90;;;;;;5035806;28;20620;-67
2022/10/17 08:49:45;;;;;;;2.70;1.80;;;17.50;68.90;;;;;;5051808;28;20649;-67
2022/10/17 08:52:33;;;;;;;2.30;1.60;;;17.50;68.90;;;;;;5052225;28;20232;-67
2022/10/17 08:54:58;;;;;;;8.55;2.10;;;17.50;68.90;;;;;;5051972;28;20191;-67
2022/10/17 08:57:24;;;;;;;2.03;1.83;;;17.50;68.90;;;;;;5052793;28;20707;-67
2022/10/17 08:59:51;;;;;;;1.88;1.60;;;17.50;68.90;;;;;;5051082;28;20182;-67
2022/10/17 09:02:41;;;;;;;2.15;1.73;;;17.50;69.00;;;;;;5052574;28;21097;-67
2022/10/17 09:05:18;;;;;;;1.80;1.67;;;17.50;69.00;;;;;;5052638;28;20167;-67
2022/10/17 09:08:07;;;;;;;2.17;1.80;;;17.50;69.10;;;;;;5052110;28;20539;-67
2022/10/17 09:11:05;;;;;;;5.07;1.77;;;17.50;69.00;;;;;;5051667;28;20222;-67
2022/10/17 09:13:52;;;;;;;2.38;1.65;;;17.50;69.10;;;;;;5039746;28;20268;-67
2022/10/17 09:16:41;;;;;;;2.03;1.70;;;17.40;69.00;;;;;;5052514;28;20179;-68
2022/10/17 09:19:18;;;;;;;3.67;1.70;;;17.50;69.00;;;;;;5052398;28;20183;-67
2022/10/17 09:21:45;;;;;;;2.95;1.60;;;17.50;69.10;;;;;;5050800;28;20536;-67
2022/10/17 09:24:44;;;;;;;2.53;1.63;;;17.50;69.10;;;;;;5051164;28;20642;-67
2022/10/17 09:27:45;;;;;;;2.40;1.98;;;17.50;69.10;;;;;;5039779;28;20183;-67
2022/10/17 09:30:42;;;;;;;2.67;2.17;;;17.50;69.10;;;;;;5052558;28;20217;-67
2022/10/17 09:33:14;;;;;;;2.13;1.70;;;17.50;69.10;;;;;;5052262;28;20210;-67
2022/10/17 09:35:40;;;;;;;3.03;1.63;;;17.50;69.10;;;;;;5052627;28;20186;-67
2022/10/17 09:38:10;;;;;;;2.45;1.75;;;17.50;69.10;;;;;;5038839;28;20175;-67
2022/10/17 09:40:36;;;;;;;2.05;1.85;;;17.50;69.00;;;;;;5056791;28;20183;-67
2022/10/17 09:43:02;;;;;;;2.25;1.52;;;17.50;69.10;;;;;;5055594;28;20171;-67
2022/10/17 09:45:29;;;;;;;3.58;1.92;;;17.50;69.10;;;;;;5038853;28;20183;-67
2022/10/17 09:48:23;;;;;;;2.47;1.65;;;17.40;69.00;;;;;;5038244;28;20575;-67
2022/10/17 09:50:48;;;;;;;2.33;1.80;;;17.50;69.10;;;;;;5039977;28;20175;-68
2022/10/17 09:53:17;;;;;;;2.53;1.80;;;17.50;69.10;;;;;;5055943;28;20679;-67
2022/10/17 09:55:47;;;;;;;2.25;1.90;;;17.50;69.10;;;;;;5038259;28;20229;-74
2022/10/17 09:58:12;;;;;;;2.10;2.00;;;17.50;69.20;;;;;;5044937;28;20253;-72
2022/10/17 10:00:39;;;;;;;2.38;1.75;;;17.50;69.50;;;;;;5067759;28;20610;-72
2022/10/17 10:03:19;;;;;;;3.30;2.08;;;17.50;69.40;;;;;;5056148;28;20213;-72
2022/10/17 10:05:58;;;;;;;3.08;2.20;;;17.50;69.60;;;;;;5061757;28;20641;-72
2022/10/17 10:08:30;;;;;;;1.90;1.80;;;17.60;69.80;;;;;;5076318;28;20167;-73
2022/10/17 10:11:02;;;;;;;2.08;1.80;;;17.60;69.70;;;;;;5075227;28;20226;-73
2022/10/17 10:13:27;;;;;;;3.45;1.83;;;17.60;69.70;;;;;;5058736;28;20214;-73
2022/10/17 10:15:53;;;;;;;3.17;1.63;;;17.60;69.40;;;;;;5056695;28;20179;-71
2022/10/17 10:18:25;;;;;;;2.83;2.20;;;17.60;69.50;;;;;;5037348;28;20638;-71
2022/10/17 10:21:16;;;;;;;2.72;1.88;;;17.60;69.50;;;;;;5055963;28;20293;-71
2022/10/17 10:23:42;;;;;;;2.08;1.63;;;17.70;70.10;;;;;;5055052;28;20182;-68
2022/10/17 10:26:15;;;;;;;2.58;2.08;;;17.70;70.00;;;;;;5054391;28;20207;-68
2022/10/17 10:28:47;;;;;;;3.55;1.85;;;17.70;69.70;;;;;;5063059;28;20179;-68
2022/10/17 10:31:12;;;;;;;5.05;1.90;;;17.70;69.70;;;;;;5047115;28;20259;-68
2022/10/17 10:33:40;;;;;;;2.15;1.80;;;17.60;69.60;;;;;;5055403;28;20643;-68
2022/10/17 10:36:06;;;;;;;5.07;2.13;;;17.60;69.80;;;;;;5074557;28;20181;-68
2022/10/17 10:38:32;;;;;;;1.85;1.65;;;17.70;69.90;;;;;;5073729;28;20179;-68
2022/10/17 10:41:06;;;;;;;4.40;1.92;;;17.70;69.80;;;;;;5075026;28;20220;-69
2022/10/17 10:43:36;;;;;;;2.28;2.08;;;17.60;69.80;;;;;;5065012;28;20176;-69
2022/10/17 10:46:16;;;;;;;7.72;2.90;;;17.70;69.60;;;;;;5054667;28;20206;-68
2022/10/17 10:48:53;;;;;;;3.30;1.90;;;17.70;70.60;;;;;;5053498;28;20189;-68
2022/10/17 10:51:22;;;;;;;4.15;2.15;;;17.70;69.60;;;;;;5054370;28;20248;-68
2022/10/17 10:53:55;;;;;;;2.40;1.73;;;17.70;69.60;;;;;;5053848;28;20704;-68
2022/10/17 10:56:39;;;;;;;3.65;1.92;;;17.70;69.60;;;;;;5054777;28;20210;-69
2022/10/17 10:59:08;;;;;;;3.83;1.73;;;17.70;69.50;;;;;;5052338;28;20254;-69
2022/10/17 11:01:42;;;;;;;2.13;1.50;;;17.70;69.60;;;;;;5061486;28;20245;-68
2022/10/17 11:04:28;;;;;;;2.08;1.60;;;17.80;69.60;;;;;;5054993;28;20590;-68
2022/10/17 11:07:18;;;;;;;3.60;2.28;;;17.80;69.60;;;;;;5054071;28;20171;-68
2022/10/17 11:10:04;;;;;;;3.58;1.75;;;17.70;69.60;;;;;;5053958;28;20217;-68
2022/10/17 11:12:31;;;;;;;2.63;1.50;;;17.80;69.70;;;;;;5053323;28;20191;-68
2022/10/17 11:15:20;;;;;;;2.72;1.58;;;17.70;69.60;;;;;;5053583;28;20187;-68
2022/10/17 11:18:02;;;;;;;2.35;1.40;;;17.70;69.70;;;;;;5052900;28;20176;-69
2022/10/17 11:20:50;;;;;;;3.20;1.80;;;17.80;69.90;;;;;;5052856;28;20182;-69
2022/10/17 11:23:29;;;;;;;3.20;2.20;;;17.70;70.00;;;;;;5053234;28;20182;-68
2022/10/17 11:25:55;;;;;;;5.47;1.70;;;17.80;70.00;;;;;;5054726;28;20178;-68
2022/10/17 11:28:22;;;;;;;3.38;2.08;;;17.80;70.20;;;;;;5052241;28;20203;-68
2022/10/17 11:30:47;;;;;;;3.28;1.60;;;17.80;70.10;;;;;;5053433;28;20178;-67
2022/10/17 11:33:49;;;;;;;2.22;1.98;;;17.80;70.20;;;;;;5054144;28;20353;-69
2022/10/17 11:36:16;;;;;;;5.25;2.13;;;17.90;70.20;;;;;;5036153;28;20218;-68
2022/10/17 11:39:37;;;;;;;3.72;1.77;;;17.80;70.00;;;;;;5033571;28;20594;-69
2022/10/17 11:42:06;;;;;;;1.40;1.30;;;17.80;70.10;;;;;;5016743;28;20187;-66
2022/10/17 11:44:40;;;;;;;3.92;1.80;;;17.80;70.20;;;;;;5033530;28;20263;-69
2022/10/17 11:47:45;;;;;;;3.42;2.20;;;17.80;70.40;;;;;;5032727;28;20969;-67
2022/10/17 11:50:31;;;;;;;1.73;1.63;;;17.90;70.30;;;;;;5033393;28;20568;-67
2022/10/17 11:53:21;;;;;;;2.83;1.65;;;17.90;70.30;;;;;;5034086;28;20195;-68
2022/10/17 11:55:46;;;;;;;2.83;1.80;;;17.90;70.30;;;;;;5025855;28;20202;-68
2022/10/17 11:58:33;;;;;;;3.05;1.77;;;17.90;70.40;;;;;;5032619;28;20172;-67
2022/10/17 12:01:08;;;;;;;2.67;2.03;;;17.90;70.30;;;;;;5032866;28;20175;-68
2022/10/17 12:03:57;;;;;;;2.50;1.70;;;17.90;70.40;;;;;;5032848;28;20202;-67
2022/10/17 12:06:53;;;;;;;2.78;1.77;;;17.90;70.20;;;;;;5059258;28;20175;-67
2022/10/17 12:09:25;;;;;;;2.10;1.90;;;17.90;70.30;;;;;;5071278;28;20667;-67
2022/10/17 12:11:53;;;;;;;3.03;1.77;;;17.90;70.30;;;;;;5073394;28;20222;-67
2022/10/17 12:14:44;;;;;;;2.30;1.83;;;17.80;70.30;;;;;;5072251;28;20210;-68
2022/10/17 12:17:31;;;;;;;4.45;1.98;;;17.80;70.30;;;;;;5072623;28;20532;-68
2022/10/17 12:20:18;;;;;;;2.80;1.90;;;17.80;70.40;;;;;;5072093;28;20274;-67
2022/10/17 12:22:47;;;;;;;2.92;1.80;;;17.80;70.40;;;;;;5072904;28;20174;-67
2022/10/17 12:25:28;;;;;;;1.58;1.48;;;17.80;70.50;;;;;;5073313;28;20174;-71
2022/10/17 12:28:11;;;;;;;2.97;2.13;;;17.80;70.50;;;;;;5057008;28;20215;-71
2022/10/17 12:30:47;;;;;;;2.50;1.88;;;17.80;70.60;;;;;;5071300;28;20200;-71
2022/10/17 12:33:21;;;;;;;1.98;1.85;;;17.80;70.70;;;;;;5056308;28;20216;-71
2022/10/17 12:35:47;;;;;;;2.08;1.60;;;17.80;70.70;;;;;;5044559;28;20182;-70
2022/10/17 12:38:15;;;;;;;2.03;1.90;;;17.90;70.80;;;;;;5049259;28;20257;-72
2022/10/17 12:40:41;;;;;;;2.80;1.73;;;17.90;70.80;;;;;;5057696;28;20179;-72
2022/10/17 12:43:12;;;;;;;5.07;1.85;;;17.90;70.70;;;;;;5061884;28;20167;-70
2022/10/17 12:45:48;;;;;;;2.67;1.90;;;17.90;70.80;;;;;;5064602;28;20190;-70
2022/10/17 12:48:32;;;;;;;4.88;2.30;;;17.90;70.90;;;;;;5054300;28;20236;-71
2022/10/17 12:51:07;;;;;;;2.45;1.83;;;17.90;71.00;;;;;;5052087;28;20179;-71
2022/10/17 12:53:45;;;;;;;5.18;2.38;;;17.90;71.00;;;;;;5051925;28;20213;-71
2022/10/17 12:56:18;;;;;;;2.05;1.80;;;17.90;71.00;;;;;;5064189;28;20178;-72
2022/10/17 12:58:44;;;;;;;2.45;2.25;;;17.90;71.00;;;;;;5071183;28;20269;-72
2022/10/17 13:01:16;;;;;;;2.30;1.83;;;17.90;71.90;;;;;;5071645;28;20182;-71
2022/10/17 13:03:43;;;;;;;2.60;1.80;;;17.90;71.00;;;;;;5039480;28;20565;-70
2022/10/17 13:06:18;;;;;;;3.38;2.30;;;17.90;71.00;;;;;;5034131;28;20557;-71